sensor_id;sensor_type;location;lat;lon;timestamp;pressure;altitude;pressure_sealevel;temperature;humidity
51759;BME280;66684;47.568;18.734;2023-05-09T00:00:44;100282.06;;;8.79;64.40
51759;BME280;66684;47.568;18.734;2023-05-09T00:03:10;100282.25;;;8.52;65.53
51759;BME280;66684;47.568;18.734;2023-05-09T00:05:37;100287.47;;;8.54;65.04
51759;BME280;66684;47.568;18.734;2023-05-09T00:08:03;100282.75;;;8.47;66.33
51759;BME280;66684;47.568;18.734;2023-05-09T00:10:29;100275.66;;;8.43;66.22
51759;BME280;66684;47.568;18.734;2023-05-09T00:12:55;100273.91;;;8.56;64.99
51759;BME280;66684;47.568;18.734;2023-05-09T00:15:23;100276.34;;;8.40;66.94
51759;BME280;66684;47.568;18.734;2023-05-09T00:17:50;100269.72;;;8.58;65.76
51759;BME280;66684;47.568;18.734;2023-05-09T00:20:16;100270.87;;;8.49;66.25
51759;BME280;66684;47.568;18.734;2023-05-09T00:22:42;100264.13;;;8.51;65.71
51759;BME280;66684;47.568;18.734;2023-05-09T00:25:09;100266.63;;;8.49;66.36
51759;BME280;66684;47.568;18.734;2023-05-09T00:27:35;100262.00;;;8.44;66.33
51759;BME280;66684;47.568;18.734;2023-05-09T00:30:03;100261.88;;;8.42;66.52
51759;BME280;66684;47.568;18.734;2023-05-09T00:32:29;100262.88;;;8.44;66.02
51759;BME280;66684;47.568;18.734;2023-05-09T00:34:55;100259.53;;;8.32;66.28
51759;BME280;66684;47.568;18.734;2023-05-09T00:37:21;100259.59;;;8.19;67.91
51759;BME280;66684;47.568;18.734;2023-05-09T00:39:47;100259.22;;;8.13;67.85
51759;BME280;66684;47.568;18.734;2023-05-09T00:42:13;100260.44;;;8.04;68.93
51759;BME280;66684;47.568;18.734;2023-05-09T00:44:39;100255.06;;;8.15;68.20
51759;BME280;66684;47.568;18.734;2023-05-09T00:47:06;100256.38;;;8.23;68.36
51759;BME280;66684;47.568;18.734;2023-05-09T00:49:32;100253.00;;;8.09;69.25
51759;BME280;66684;47.568;18.734;2023-05-09T00:51:58;100258.28;;;7.97;69.74
51759;BME280;66684;47.568;18.734;2023-05-09T00:54:25;100253.78;;;8.08;69.66
51759;BME280;66684;47.568;18.734;2023-05-09T00:56:51;100255.28;;;8.04;70.71
51759;BME280;66684;47.568;18.734;2023-05-09T00:59:17;100252.69;;;8.18;69.92
51759;BME280;66684;47.568;18.734;2023-05-09T01:01:44;100255.72;;;8.25;70.17
51759;BME280;66684;47.568;18.734;2023-05-09T01:04:11;100254.19;;;8.29;69.73
51759;BME280;66684;47.568;18.734;2023-05-09T01:09:55;100256.75;;;8.14;70.77
51759;BME280;66684;47.568;18.734;2023-05-09T01:20:22;100265.41;;;7.60;73.63
51759;BME280;66684;47.568;18.734;2023-05-09T01:23:09;100256.91;;;7.61;74.15
51759;BME280;66684;47.568;18.734;2023-05-09T01:25:48;100260.97;;;7.57;73.04
51759;BME280;66684;47.568;18.734;2023-05-09T01:31:20;100252.66;;;7.62;73.65
51759;BME280;66684;47.568;18.734;2023-05-09T01:33:52;100254.06;;;7.43;74.61
51759;BME280;66684;47.568;18.734;2023-05-09T01:36:20;100252.28;;;7.55;73.91
51759;BME280;66684;47.568;18.734;2023-05-09T01:38:49;100246.09;;;7.67;72.94
51759;BME280;66684;47.568;18.734;2023-05-09T01:41:17;100250.59;;;7.56;73.64
51759;BME280;66684;47.568;18.734;2023-05-09T01:43:48;100249.66;;;7.69;73.10
51759;BME280;66684;47.568;18.734;2023-05-09T01:46:17;100253.03;;;7.68;73.38
51759;BME280;66684;47.568;18.734;2023-05-09T01:48:44;100244.53;;;7.69;73.33
51759;BME280;66684;47.568;18.734;2023-05-09T01:51:12;100248.88;;;7.70;73.59
51759;BME280;66684;47.568;18.734;2023-05-09T01:53:39;100247.31;;;7.58;73.80
51759;BME280;66684;47.568;18.734;2023-05-09T01:56:06;100231.84;;;7.30;75.34
51759;BME280;66684;47.568;18.734;2023-05-09T01:58:35;100239.84;;;7.48;75.37
51759;BME280;66684;47.568;18.734;2023-05-09T02:01:04;100240.59;;;7.61;75.88
51759;BME280;66684;47.568;18.734;2023-05-09T02:03:31;100246.87;;;7.66;75.87
51759;BME280;66684;47.568;18.734;2023-05-09T02:06:00;100247.69;;;7.65;76.08
51759;BME280;66684;47.568;18.734;2023-05-09T02:08:28;100240.28;;;7.69;76.24
51759;BME280;66684;47.568;18.734;2023-05-09T02:10:54;100242.28;;;7.47;76.70
51759;BME280;66684;47.568;18.734;2023-05-09T02:13:20;100241.88;;;7.54;77.23
51759;BME280;66684;47.568;18.734;2023-05-09T02:15:46;100232.59;;;7.56;76.29
51759;BME280;66684;47.568;18.734;2023-05-09T02:18:12;100231.44;;;7.38;77.27
51759;BME280;66684;47.568;18.734;2023-05-09T02:20:39;100243.81;;;7.30;78.49
51759;BME280;66684;47.568;18.734;2023-05-09T02:23:04;100225.91;;;7.32;78.03
51759;BME280;66684;47.568;18.734;2023-05-09T02:25:32;100230.56;;;7.11;78.43
51759;BME280;66684;47.568;18.734;2023-05-09T02:27:58;100231.72;;;7.16;78.61
51759;BME280;66684;47.568;18.734;2023-05-09T02:30:25;100227.88;;;7.09;79.18
51759;BME280;66684;47.568;18.734;2023-05-09T02:32:58;100226.13;;;7.08;78.84
51759;BME280;66684;47.568;18.734;2023-05-09T02:35:26;100222.56;;;7.06;78.04
51759;BME280;66684;47.568;18.734;2023-05-09T02:37:53;100227.00;;;7.09;78.40
51759;BME280;66684;47.568;18.734;2023-05-09T02:40:21;100228.38;;;7.03;78.79
51759;BME280;66684;47.568;18.734;2023-05-09T02:42:47;100220.19;;;6.83;80.25
51759;BME280;66684;47.568;18.734;2023-05-09T02:45:13;100215.53;;;6.90;80.62
51759;BME280;66684;47.568;18.734;2023-05-09T02:47:39;100212.19;;;7.05;79.49
51759;BME280;66684;47.568;18.734;2023-05-09T02:50:05;100210.22;;;7.00;79.30
51759;BME280;66684;47.568;18.734;2023-05-09T02:52:31;100221.56;;;6.91;79.99
51759;BME280;66684;47.568;18.734;2023-05-09T02:54:57;100216.31;;;6.76;81.27
51759;BME280;66684;47.568;18.734;2023-05-09T02:57:23;100218.88;;;6.63;81.40
51759;BME280;66684;47.568;18.734;2023-05-09T02:59:49;100215.94;;;6.70;81.44
51759;BME280;66684;47.568;18.734;2023-05-09T03:02:14;100216.31;;;6.76;81.22
51759;BME280;66684;47.568;18.734;2023-05-09T03:04:40;100215.53;;;6.90;80.71
51759;BME280;66684;47.568;18.734;2023-05-09T03:07:06;100213.97;;;6.92;80.28
51759;BME280;66684;47.568;18.734;2023-05-09T03:09:32;100212.69;;;6.86;80.93
51759;BME280;66684;47.568;18.734;2023-05-09T03:11:58;100215.12;;;6.71;81.76
51759;BME280;66684;47.568;18.734;2023-05-09T03:14:24;100213.28;;;6.68;82.17
51759;BME280;66684;47.568;18.734;2023-05-09T03:16:50;100203.97;;;6.84;81.16
51759;BME280;66684;47.568;18.734;2023-05-09T03:19:16;100213.28;;;6.82;81.67
51759;BME280;66684;47.568;18.734;2023-05-09T03:21:42;100209.81;;;6.81;81.77
51759;BME280;66684;47.568;18.734;2023-05-09T03:24:12;100213.28;;;6.68;83.33
51759;BME280;66684;47.568;18.734;2023-05-09T03:26:38;100215.91;;;6.57;83.21
51759;BME280;66684;47.568;18.734;2023-05-09T03:29:04;100213.63;;;6.48;84.64
51759;BME280;66684;47.568;18.734;2023-05-09T03:31:30;100220.72;;;6.52;84.10
51759;BME280;66684;47.568;18.734;2023-05-09T03:33:56;100220.66;;;6.64;84.18
51759;BME280;66684;47.568;18.734;2023-05-09T03:36:22;100223.47;;;6.80;83.47
51759;BME280;66684;47.568;18.734;2023-05-09T03:38:48;100220.69;;;6.90;83.05
51759;BME280;66684;47.568;18.734;2023-05-09T03:41:16;100224.25;;;6.92;82.76
51759;BME280;66684;47.568;18.734;2023-05-09T03:43:42;100221.38;;;6.88;82.74
51759;BME280;66684;47.568;18.734;2023-05-09T03:46:08;100224.50;;;6.70;83.32
51759;BME280;66684;47.568;18.734;2023-05-09T03:48:34;100222.03;;;6.59;84.61
51759;BME280;66684;47.568;18.734;2023-05-09T03:50:59;100218.50;;;6.70;84.21
51759;BME280;66684;47.568;18.734;2023-05-09T03:53:25;100225.22;;;6.81;83.85
51759;BME280;66684;47.568;18.734;2023-05-09T03:55:51;100227.41;;;6.88;82.67
51759;BME280;66684;47.568;18.734;2023-05-09T03:58:17;100231.66;;;6.88;83.75
51759;BME280;66684;47.568;18.734;2023-05-09T04:00:44;100227.88;;;6.83;84.04
51759;BME280;66684;47.568;18.734;2023-05-09T04:03:10;100226.91;;;6.94;83.27
51759;BME280;66684;47.568;18.734;2023-05-09T04:05:36;100230.56;;;6.97;82.98
51759;BME280;66684;47.568;18.734;2023-05-09T04:08:03;100232.84;;;6.80;84.70
51759;BME280;66684;47.568;18.734;2023-05-09T04:10:29;100234.94;;;6.98;83.65
51759;BME280;66684;47.568;18.734;2023-05-09T04:12:56;100229.47;;;7.07;82.51
51759;BME280;66684;47.568;18.734;2023-05-09T04:15:22;100228.50;;;7.18;82.12
51759;BME280;66684;47.568;18.734;2023-05-09T04:17:48;100236.78;;;7.27;81.29
51759;BME280;66684;47.568;18.734;2023-05-09T04:20:14;100231.59;;;7.41;80.88
51759;BME280;66684;47.568;18.734;2023-05-09T04:22:40;100236.84;;;7.29;81.71
51759;BME280;66684;47.568;18.734;2023-05-09T04:25:06;100231.69;;;7.55;80.20
51759;BME280;66684;47.568;18.734;2023-05-09T04:27:33;100229.53;;;7.48;79.66
51759;BME280;66684;47.568;18.734;2023-05-09T04:29:58;100238.62;;;7.56;80.22
51759;BME280;66684;47.568;18.734;2023-05-09T04:32:24;100240.94;;;7.67;79.21
51759;BME280;66684;47.568;18.734;2023-05-09T04:34:51;100238.75;;;7.86;78.56
51759;BME280;66684;47.568;18.734;2023-05-09T04:37:17;100228.25;;;7.83;79.06
51759;BME280;66684;47.568;18.734;2023-05-09T04:39:43;100238.31;;;7.93;78.72
51759;BME280;66684;47.568;18.734;2023-05-09T04:42:09;100237.25;;;8.04;78.65
51759;BME280;66684;47.568;18.734;2023-05-09T04:44:35;100234.34;;;7.98;77.74
51759;BME280;66684;47.568;18.734;2023-05-09T04:47:01;100238.62;;;8.13;77.31
51759;BME280;66684;47.568;18.734;2023-05-09T04:49:27;100237.75;;;8.12;76.96
51759;BME280;66684;47.568;18.734;2023-05-09T04:51:52;100239.47;;;8.26;76.52
51759;BME280;66684;47.568;18.734;2023-05-09T04:54:18;100240.78;;;8.34;75.79
51759;BME280;66684;47.568;18.734;2023-05-09T04:56:44;100238.13;;;8.33;76.42
51759;BME280;66684;47.568;18.734;2023-05-09T04:59:10;100238.19;;;8.48;76.59
51759;BME280;66684;47.568;18.734;2023-05-09T05:01:36;100236.59;;;8.64;75.26
51759;BME280;66684;47.568;18.734;2023-05-09T05:04:02;100239.88;;;8.77;75.58
51759;BME280;66684;47.568;18.734;2023-05-09T05:06:28;100245.91;;;8.92;74.56
51759;BME280;66684;47.568;18.734;2023-05-09T05:08:53;100240.22;;;9.12;73.89
51759;BME280;66684;47.568;18.734;2023-05-09T05:11:20;100246.34;;;9.14;73.17
51759;BME280;66684;47.568;18.734;2023-05-09T05:13:46;100248.44;;;9.22;71.91
51759;BME280;66684;47.568;18.734;2023-05-09T05:16:12;100248.59;;;9.39;70.74
51759;BME280;66684;47.568;18.734;2023-05-09T05:18:38;100250.78;;;9.48;70.68
51759;BME280;66684;47.568;18.734;2023-05-09T05:21:04;100250.75;;;9.32;72.80
51759;BME280;66684;47.568;18.734;2023-05-09T05:23:29;100250.63;;;9.61;71.38
51759;BME280;66684;47.568;18.734;2023-05-09T05:25:55;100252.25;;;9.59;70.28
51759;BME280;66684;47.568;18.734;2023-05-09T05:28:21;100253.22;;;9.61;71.38
51759;BME280;66684;47.568;18.734;2023-05-09T05:30:48;100246.00;;;9.70;69.38
51759;BME280;66684;47.568;18.734;2023-05-09T05:33:13;100238.84;;;9.81;68.69
51759;BME280;66684;47.568;18.734;2023-05-09T05:35:39;100247.13;;;9.92;69.09
51759;BME280;66684;47.568;18.734;2023-05-09T05:38:05;100240.03;;;10.04;68.75
51759;BME280;66684;47.568;18.734;2023-05-09T05:40:31;100250.37;;;10.20;67.56
51759;BME280;66684;47.568;18.734;2023-05-09T05:42:57;100246.03;;;10.36;66.76
51759;BME280;66684;47.568;18.734;2023-05-09T05:45:23;100244.75;;;10.27;67.10
51759;BME280;66684;47.568;18.734;2023-05-09T05:47:49;100242.62;;;10.53;65.12
51759;BME280;66684;47.568;18.734;2023-05-09T05:50:15;100243.87;;;10.61;66.93
51759;BME280;66684;47.568;18.734;2023-05-09T05:52:40;100244.00;;;10.80;65.89
51759;BME280;66684;47.568;18.734;2023-05-09T05:55:07;100236.13;;;10.95;64.74
51759;BME280;66684;47.568;18.734;2023-05-09T05:57:33;100242.84;;;11.10;64.55
51759;BME280;66684;47.568;18.734;2023-05-09T06:00:07;100235.53;;;11.19;64.62
51759;BME280;66684;47.568;18.734;2023-05-09T06:02:35;100235.00;;;11.44;64.00
51759;BME280;66684;47.568;18.734;2023-05-09T06:05:02;100240.56;;;11.51;61.54
51759;BME280;66684;47.568;18.734;2023-05-09T06:07:28;100232.88;;;11.72;60.76
51759;BME280;66684;47.568;18.734;2023-05-09T06:09:54;100230.16;;;11.69;61.42
51759;BME280;66684;47.568;18.734;2023-05-09T06:12:20;100241.19;;;11.83;60.23
51759;BME280;66684;47.568;18.734;2023-05-09T06:14:46;100240.31;;;11.82;60.20
51759;BME280;66684;47.568;18.734;2023-05-09T06:17:12;100242.47;;;11.75;60.63
51759;BME280;66684;47.568;18.734;2023-05-09T06:19:38;100239.28;;;11.80;58.47
51759;BME280;66684;47.568;18.734;2023-05-09T06:22:04;100241.47;;;12.08;59.79
51759;BME280;66684;47.568;18.734;2023-05-09T06:24:30;100240.16;;;12.18;58.65
51759;BME280;66684;47.568;18.734;2023-05-09T06:26:56;100233.34;;;12.39;57.15
51759;BME280;66684;47.568;18.734;2023-05-09T06:29:21;100230.91;;;12.44;56.98
51759;BME280;66684;47.568;18.734;2023-05-09T06:31:47;100230.81;;;12.41;58.00
51759;BME280;66684;47.568;18.734;2023-05-09T06:34:13;100225.72;;;12.44;57.35
51759;BME280;66684;47.568;18.734;2023-05-09T06:36:39;100217.63;;;12.36;56.98
51759;BME280;66684;47.568;18.734;2023-05-09T06:39:05;100229.38;;;12.28;57.11
51759;BME280;66684;47.568;18.734;2023-05-09T06:41:31;100220.41;;;12.20;56.69
51759;BME280;66684;47.568;18.734;2023-05-09T06:43:57;100217.66;;;11.98;56.76
51759;BME280;66684;47.568;18.734;2023-05-09T06:46:22;100222.28;;;11.85;57.83
51759;BME280;66684;47.568;18.734;2023-05-09T06:48:48;100220.81;;;12.10;57.56
51759;BME280;66684;47.568;18.734;2023-05-09T06:51:15;100216.37;;;12.27;57.46
51759;BME280;66684;47.568;18.734;2023-05-09T06:53:41;100213.69;;;12.25;57.96
51759;BME280;66684;47.568;18.734;2023-05-09T06:56:07;100214.22;;;12.37;57.21
51759;BME280;66684;47.568;18.734;2023-05-09T06:58:32;100204.13;;;12.43;57.21
51759;BME280;66684;47.568;18.734;2023-05-09T07:00:58;100213.91;;;12.70;57.21
51759;BME280;66684;47.568;18.734;2023-05-09T07:03:24;100209.09;;;12.79;55.78
51759;BME280;66684;47.568;18.734;2023-05-09T07:05:50;100214.88;;;12.94;56.80
51759;BME280;66684;47.568;18.734;2023-05-09T07:08:17;100211.31;;;13.13;55.22
51759;BME280;66684;47.568;18.734;2023-05-09T07:10:43;100204.22;;;13.08;54.95
51759;BME280;66684;47.568;18.734;2023-05-09T07:13:09;100200.88;;;13.12;55.05
51759;BME280;66684;47.568;18.734;2023-05-09T07:15:34;100204.25;;;13.30;55.95
51759;BME280;66684;47.568;18.734;2023-05-09T07:18:00;100197.78;;;13.41;55.00
51759;BME280;66684;47.568;18.734;2023-05-09T07:20:26;100198.34;;;13.57;54.18
51759;BME280;66684;47.568;18.734;2023-05-09T07:22:52;100202.22;;;13.68;54.43
51759;BME280;66684;47.568;18.734;2023-05-09T07:25:18;100199.91;;;13.75;52.94
51759;BME280;66684;47.568;18.734;2023-05-09T07:27:44;100201.66;;;13.53;54.84
51759;BME280;66684;47.568;18.734;2023-05-09T07:30:10;100193.37;;;13.63;54.39
51759;BME280;66684;47.568;18.734;2023-05-09T07:32:36;100191.06;;;13.46;55.90
51759;BME280;66684;47.568;18.734;2023-05-09T07:35:02;100185.53;;;13.61;55.49
51759;BME280;66684;47.568;18.734;2023-05-09T07:37:28;100190.78;;;13.85;55.12
51759;BME280;66684;47.568;18.734;2023-05-09T07:39:54;100185.22;;;13.76;53.38
51759;BME280;66684;47.568;18.734;2023-05-09T07:42:20;100186.94;;;13.99;52.83
51759;BME280;66684;47.568;18.734;2023-05-09T07:44:46;100178.06;;;13.93;53.30
51759;BME280;66684;47.568;18.734;2023-05-09T07:47:12;100178.84;;;13.90;53.19
51759;BME280;66684;47.568;18.734;2023-05-09T07:49:38;100182.94;;;13.84;54.08
51759;BME280;66684;47.568;18.734;2023-05-09T07:52:05;100181.59;;;13.71;54.93
51759;BME280;66684;47.568;18.734;2023-05-09T07:54:31;100186.84;;;13.50;54.89
51759;BME280;66684;47.568;18.734;2023-05-09T07:56:57;100178.03;;;13.69;56.90
51759;BME280;66684;47.568;18.734;2023-05-09T07:59:23;100179.13;;;13.75;56.16
51759;BME280;66684;47.568;18.734;2023-05-09T08:01:48;100174.69;;;13.95;54.13
51759;BME280;66684;47.568;18.734;2023-05-09T08:04:14;100172.28;;;14.25;54.08
51759;BME280;66684;47.568;18.734;2023-05-09T08:06:40;100167.03;;;14.24;54.05
51759;BME280;66684;47.568;18.734;2023-05-09T08:09:06;100164.22;;;14.18;52.51
51759;BME280;66684;47.568;18.734;2023-05-09T08:11:33;100162.41;;;14.15;55.79
51759;BME280;66684;47.568;18.734;2023-05-09T08:13:59;100161.88;;;14.49;52.85
51759;BME280;66684;47.568;18.734;2023-05-09T08:16:25;100159.16;;;14.72;51.25
51759;BME280;66684;47.568;18.734;2023-05-09T08:18:51;100151.69;;;14.82;51.17
51759;BME280;66684;47.568;18.734;2023-05-09T08:21:17;100148.75;;;14.72;51.77
51759;BME280;66684;47.568;18.734;2023-05-09T08:23:43;100153.53;;;14.85;52.33
51759;BME280;66684;47.568;18.734;2023-05-09T08:26:08;100149.09;;;15.09;51.02
51759;BME280;66684;47.568;18.734;2023-05-09T08:28:34;100146.31;;;15.33;50.17
51759;BME280;66684;47.568;18.734;2023-05-09T08:31:00;100151.81;;;15.43;49.39
51759;BME280;66684;47.568;18.734;2023-05-09T08:33:26;100136.59;;;15.56;49.57
51759;BME280;66684;47.568;18.734;2023-05-09T08:35:52;100147.72;;;15.51;50.10
51759;BME280;66684;47.568;18.734;2023-05-09T08:38:19;100148.16;;;15.64;50.00
51759;BME280;66684;47.568;18.734;2023-05-09T08:40:45;100141.34;;;15.70;49.78
51759;BME280;66684;47.568;18.734;2023-05-09T08:43:11;100141.31;;;15.68;50.56
51759;BME280;66684;47.568;18.734;2023-05-09T08:45:44;100134.31;;;15.97;48.19
51759;BME280;66684;47.568;18.734;2023-05-09T08:48:12;100126.44;;;15.96;46.97
51759;BME280;66684;47.568;18.734;2023-05-09T08:50:40;100134.16;;;15.91;48.81
51759;BME280;66684;47.568;18.734;2023-05-09T08:53:06;100127.03;;;15.55;48.66
51759;BME280;66684;47.568;18.734;2023-05-09T08:55:32;100138.16;;;15.50;48.36
51759;BME280;66684;47.568;18.734;2023-05-09T08:57:58;100126.31;;;15.61;48.16
51759;BME280;66684;47.568;18.734;2023-05-09T09:00:25;100128.44;;;16.04;49.98
51759;BME280;66684;47.568;18.734;2023-05-09T09:02:51;100119.50;;;15.96;49.35
51759;BME280;66684;47.568;18.734;2023-05-09T09:05:18;100123.78;;;15.94;49.50
51759;BME280;66684;47.568;18.734;2023-05-09T09:07:45;100116.19;;;16.35;47.57
51759;BME280;66684;47.568;18.734;2023-05-09T09:10:12;100108.59;;;16.44;48.21
51759;BME280;66684;47.568;18.734;2023-05-09T09:12:38;100109.50;;;16.79;47.58
51759;BME280;66684;47.568;18.734;2023-05-09T09:15:07;100109.53;;;16.81;47.24
51759;BME280;66684;47.568;18.734;2023-05-09T09:17:38;100109.47;;;16.44;46.40
51759;BME280;66684;47.568;18.734;2023-05-09T09:20:09;100099.75;;;16.39;46.29
51759;BME280;66684;47.568;18.734;2023-05-09T09:22:36;100094.78;;;16.48;46.05
51759;BME280;66684;47.568;18.734;2023-05-09T09:25:06;100100.47;;;16.66;47.13
51759;BME280;66684;47.568;18.734;2023-05-09T09:27:32;100097.50;;;16.87;45.23
51759;BME280;66684;47.568;18.734;2023-05-09T09:30:11;100098.56;;;16.97;44.69
51759;BME280;66684;47.568;18.734;2023-05-09T09:32:37;100110.38;;;17.17;45.12
51759;BME280;66684;47.568;18.734;2023-05-09T09:35:08;100100.81;;;17.19;43.60
51759;BME280;66684;47.568;18.734;2023-05-09T09:37:36;100094.00;;;17.26;44.17
51759;BME280;66684;47.568;18.734;2023-05-09T09:40:02;100101.09;;;17.32;45.04
51759;BME280;66684;47.568;18.734;2023-05-09T09:42:45;100096.75;;;17.34;43.42
51759;BME280;66684;47.568;18.734;2023-05-09T09:45:13;100093.94;;;17.23;40.74
51759;BME280;66684;47.568;18.734;2023-05-09T09:47:41;100086.78;;;17.55;41.12
51759;BME280;66684;47.568;18.734;2023-05-09T09:50:13;100090.41;;;17.63;41.49
51759;BME280;66684;47.568;18.734;2023-05-09T09:52:53;100078.88;;;17.96;40.50
51759;BME280;66684;47.568;18.734;2023-05-09T09:55:22;100084.06;;;17.93;43.38
51759;BME280;66684;47.568;18.734;2023-05-09T09:57:49;100074.91;;;18.18;41.04
51759;BME280;66684;47.568;18.734;2023-05-09T10:00:24;100075.50;;;17.59;39.88
51759;BME280;66684;47.568;18.734;2023-05-09T10:02:56;100071.34;;;17.25;41.72
51759;BME280;66684;47.568;18.734;2023-05-09T10:05:26;100072.34;;;17.32;42.03
51759;BME280;66684;47.568;18.734;2023-05-09T10:08:11;100074.13;;;17.33;41.60
51759;BME280;66684;47.568;18.734;2023-05-09T10:10:37;100060.87;;;17.67;40.83
51759;BME280;66684;47.568;18.734;2023-05-09T10:13:04;100065.03;;;18.03;41.35
51759;BME280;66684;47.568;18.734;2023-05-09T10:15:31;100068.69;;;18.11;40.80
51759;BME280;66684;47.568;18.734;2023-05-09T10:17:58;100058.69;;;18.39;39.93
51759;BME280;66684;47.568;18.734;2023-05-09T10:20:26;100048.53;;;18.60;37.11
51759;BME280;66684;47.568;18.734;2023-05-09T10:23:00;100052.69;;;18.44;37.35
51759;BME280;66684;47.568;18.734;2023-05-09T10:25:38;100044.06;;;18.50;37.92
51759;BME280;66684;47.568;18.734;2023-05-09T10:28:14;100039.19;;;18.18;38.53
51759;BME280;66684;47.568;18.734;2023-05-09T10:31:04;100045.28;;;18.72;38.63
51759;BME280;66684;47.568;18.734;2023-05-09T10:33:50;100042.44;;;18.59;38.29
51759;BME280;66684;47.568;18.734;2023-05-09T10:36:18;100047.06;;;18.21;38.96
51759;BME280;66684;47.568;18.734;2023-05-09T10:38:49;100047.78;;;18.11;38.07
51759;BME280;66684;47.568;18.734;2023-05-09T10:41:16;100042.66;;;18.17;37.50
51759;BME280;66684;47.568;18.734;2023-05-09T10:43:44;100038.41;;;18.24;36.74
51759;BME280;66684;47.568;18.734;2023-05-09T10:46:11;100040.34;;;17.86;38.03
51759;BME280;66684;47.568;18.734;2023-05-09T10:48:38;100045.81;;;17.98;38.52
51759;BME280;66684;47.568;18.734;2023-05-09T10:51:04;100052.19;;;18.15;37.81
51759;BME280;66684;47.568;18.734;2023-05-09T10:53:44;100050.31;;;18.06;37.80
51759;BME280;66684;47.568;18.734;2023-05-09T10:56:31;100047.66;;;18.05;37.96
51759;BME280;66684;47.568;18.734;2023-05-09T10:59:00;100042.19;;;18.43;38.81
51759;BME280;66684;47.568;18.734;2023-05-09T11:01:37;100041.75;;;18.68;37.86
51759;BME280;66684;47.568;18.734;2023-05-09T11:04:11;100040.00;;;18.67;38.34
51759;BME280;66684;47.568;18.734;2023-05-09T11:09:26;100035.31;;;18.49;37.25
51759;BME280;66684;47.568;18.734;2023-05-09T11:22:19;100018.56;;;18.37;38.51
51759;BME280;66684;47.568;18.734;2023-05-09T11:24:47;100027.37;;;18.45;37.49
51759;BME280;66684;47.568;18.734;2023-05-09T11:32:17;100020.69;;;18.08;37.76
51759;BME280;66684;47.568;18.734;2023-05-09T11:34:44;100014.53;;;18.04;38.56
51759;BME280;66684;47.568;18.734;2023-05-09T11:37:16;100014.34;;;17.95;39.05
51759;BME280;66684;47.568;18.734;2023-05-09T11:40:01;100013.25;;;17.37;39.24
51759;BME280;66684;47.568;18.734;2023-05-09T11:42:30;100000.47;;;17.52;38.44
51759;BME280;66684;47.568;18.734;2023-05-09T11:44:57;99997.06;;;18.03;37.27
51759;BME280;66684;47.568;18.734;2023-05-09T11:47:25;99999.19;;;18.25;37.99
51759;BME280;66684;47.568;18.734;2023-05-09T11:49:53;100003.06;;;18.52;38.06
51759;BME280;66684;47.568;18.734;2023-05-09T11:52:19;99988.72;;;18.84;35.96
51759;BME280;66684;47.568;18.734;2023-05-09T11:54:46;99989.41;;;18.68;36.65
51759;BME280;66684;47.568;18.734;2023-05-09T11:57:13;99983.09;;;19.22;35.60
51759;BME280;66684;47.568;18.734;2023-05-09T11:59:42;99980.00;;;19.57;34.43
51759;BME280;66684;47.568;18.734;2023-05-09T12:02:09;99971.53;;;19.84;34.02
51759;BME280;66684;47.568;18.734;2023-05-09T12:04:35;99971.47;;;19.76;33.25
51759;BME280;66684;47.568;18.734;2023-05-09T12:07:01;99973.44;;;20.02;34.41
51759;BME280;66684;47.568;18.734;2023-05-09T12:09:31;99963.22;;;20.38;33.97
51759;BME280;66684;47.568;18.734;2023-05-09T12:11:59;99965.41;;;19.80;34.40
51759;BME280;66684;47.568;18.734;2023-05-09T12:14:30;99967.81;;;19.59;34.39
51759;BME280;66684;47.568;18.734;2023-05-09T12:16:56;99964.88;;;19.31;35.62
51759;BME280;66684;47.568;18.734;2023-05-09T12:19:26;99960.25;;;19.92;34.92
51759;BME280;66684;47.568;18.734;2023-05-09T12:21:56;99953.59;;;20.37;34.00
51759;BME280;66684;47.568;18.734;2023-05-09T12:24:26;99952.84;;;20.54;32.76
51759;BME280;66684;47.568;18.734;2023-05-09T12:26:53;99954.47;;;20.39;32.89
51759;BME280;66684;47.568;18.734;2023-05-09T12:29:20;99961.25;;;20.07;33.59
51759;BME280;66684;47.568;18.734;2023-05-09T12:31:46;99954.00;;;19.78;34.71
51759;BME280;66684;47.568;18.734;2023-05-09T12:34:13;99955.84;;;19.87;35.37
51759;BME280;66684;47.568;18.734;2023-05-09T12:36:39;99952.41;;;19.92;34.81
51759;BME280;66684;47.568;18.734;2023-05-09T12:39:09;99943.56;;;19.81;35.92
51759;BME280;66684;47.568;18.734;2023-05-09T12:41:42;99932.91;;;19.64;36.61
51759;BME280;66684;47.568;18.734;2023-05-09T12:44:09;99931.63;;;19.27;38.21
51759;BME280;66684;47.568;18.734;2023-05-09T12:46:35;99943.97;;;19.39;35.48
51759;BME280;66684;47.568;18.734;2023-05-09T12:49:01;99929.41;;;19.64;35.34
51759;BME280;66684;47.568;18.734;2023-05-09T12:51:27;99932.53;;;19.31;35.47
51759;BME280;66684;47.568;18.734;2023-05-09T12:53:53;99923.25;;;18.83;35.60
51759;BME280;66684;47.568;18.734;2023-05-09T12:56:19;99926.81;;;18.90;36.63
51759;BME280;66684;47.568;18.734;2023-05-09T12:58:52;99919.03;;;18.96;37.50
51759;BME280;66684;47.568;18.734;2023-05-09T13:01:19;99921.72;;;19.02;37.19
51759;BME280;66684;47.568;18.734;2023-05-09T13:03:52;99919.56;;;19.43;35.92
51759;BME280;66684;47.568;18.734;2023-05-09T13:06:24;99925.25;;;19.04;37.31
51759;BME280;66684;47.568;18.734;2023-05-09T13:09:03;99928.41;;;18.75;36.91
51759;BME280;66684;47.568;18.734;2023-05-09T13:11:30;99921.00;;;18.47;36.75
51759;BME280;66684;47.568;18.734;2023-05-09T13:13:56;99913.94;;;18.41;37.26
51759;BME280;66684;47.568;18.734;2023-05-09T13:16:23;99915.56;;;18.30;38.22
51759;BME280;66684;47.568;18.734;2023-05-09T13:18:48;99910.28;;;18.28;38.47